Terminal Aerodrome Forecast
Issued by NWS

Home | Current Version | Previous Version | Text Only | Print | Product List | Glossary Off
Versions: 1 2 3 4 5 6 7 8 9 10 11 12 13

000
FTUS43 KMPX 270300 AAB
TAFRWF
TAF AMD
KRWF 270301Z 2703/2724 35008KT 4SM -SN BR SCT007 OVC018
      TEMPO 2703/2706 1SM -SN BR VV007
     FM270600 34009KT 2SM -SN BR VV006
     FM271000 32010KT 5SM -SN BR OVC012
     FM271400 30008KT P6SM SCT015 OVC040
     FM271800 27009KT P6SM SCT040=

USA.gov is the U.S. government's official web portal to all federal, state and local government web resources and services.